sensor_id;sensor_type;location;lat;lon;timestamp;P1;durP1;ratioP1;P2;durP2;ratioP2
12912;SDS011;6524;51.368;11.984;2022-09-02T04:04:36;4.97;;;4.28;;
12912;SDS011;6524;51.368;11.984;2022-09-02T04:09:37;5.63;;;4.60;;
12912;SDS011;6524;51.368;11.984;2022-09-02T04:14:37;5.47;;;4.80;;
12912;SDS011;6524;51.368;11.984;2022-09-02T04:19:37;5.67;;;4.63;;
12912;SDS011;6524;51.368;11.984;2022-09-02T04:24:39;5.07;;;4.63;;
12912;SDS011;6524;51.368;11.984;2022-09-02T04:29:39;6.32;;;5.40;;
12912;SDS011;6524;51.368;11.984;2022-09-02T04:34:39;5.15;;;4.65;;
12912;SDS011;6524;51.368;11.984;2022-09-02T04:39:40;5.20;;;4.57;;
12912;SDS011;6524;51.368;11.984;2022-09-02T04:44:40;5.20;;;4.80;;
12912;SDS011;6524;51.368;11.984;2022-09-02T04:49:40;5.72;;;5.22;;
12912;SDS011;6524;51.368;11.984;2022-09-02T04:54:42;5.40;;;4.90;;
12912;SDS011;6524;51.368;11.984;2022-09-02T04:59:42;5.88;;;5.30;;
12912;SDS011;6524;51.368;11.984;2022-09-02T05:04:42;9.05;;;5.22;;
12912;SDS011;6524;51.368;11.984;2022-09-02T05:09:43;5.72;;;5.18;;
12912;SDS011;6524;51.368;11.984;2022-09-02T05:14:43;6.85;;;5.90;;
12912;SDS011;6524;51.368;11.984;2022-09-02T05:19:43;6.13;;;5.13;;
12912;SDS011;6524;51.368;11.984;2022-09-02T05:24:44;5.85;;;5.32;;
12912;SDS011;6524;51.368;11.984;2022-09-02T05:29:44;5.80;;;5.30;;
12912;SDS011;6524;51.368;11.984;2022-09-02T05:34:45;5.68;;;5.18;;
12912;SDS011;6524;51.368;11.984;2022-09-02T05:39:46;6.30;;;5.20;;
12912;SDS011;6524;51.368;11.984;2022-09-02T05:44:47;5.65;;;5.15;;
12912;SDS011;6524;51.368;11.984;2022-09-02T05:49:48;5.13;;;4.70;;
12912;SDS011;6524;51.368;11.984;2022-09-02T05:54:48;6.13;;;5.50;;
12912;SDS011;6524;51.368;11.984;2022-09-02T05:59:48;5.45;;;4.95;;
12912;SDS011;6524;51.368;11.984;2022-09-02T06:04:54;6.57;;;4.97;;
12912;SDS011;6524;51.368;11.984;2022-09-02T06:09:55;5.15;;;4.70;;
12912;SDS011;6524;51.368;11.984;2022-09-02T06:14:55;5.72;;;5.10;;
12912;SDS011;6524;51.368;11.984;2022-09-02T06:19:55;5.63;;;5.13;;
12912;SDS011;6524;51.368;11.984;2022-09-02T06:24:56;6.43;;;5.00;;
12912;SDS011;6524;51.368;11.984;2022-09-02T06:29:56;5.38;;;4.93;;
12912;SDS011;6524;51.368;11.984;2022-09-02T06:34:56;5.68;;;5.15;;
12912;SDS011;6524;51.368;11.984;2022-09-02T06:39:57;5.93;;;4.72;;
12912;SDS011;6524;51.368;11.984;2022-09-02T06:44:57;6.03;;;4.82;;
12912;SDS011;6524;51.368;11.984;2022-09-02T06:49:58;5.45;;;4.95;;
12912;SDS011;6524;51.368;11.984;2022-09-02T06:54:59;5.28;;;4.70;;
12912;SDS011;6524;51.368;11.984;2022-09-02T07:00:00;5.25;;;4.57;;
12912;SDS011;6524;51.368;11.984;2022-09-02T07:05:03;4.13;;;3.72;;
12912;SDS011;6524;51.368;11.984;2022-09-02T07:10:10;4.60;;;4.20;;
12912;SDS011;6524;51.368;11.984;2022-09-02T07:15:13;5.53;;;4.00;;
12912;SDS011;6524;51.368;11.984;2022-09-02T07:20:13;3.88;;;3.58;;
12912;SDS011;6524;51.368;11.984;2022-09-02T07:25:15;4.72;;;4.03;;
12912;SDS011;6524;51.368;11.984;2022-09-02T07:30:16;4.03;;;3.60;;
12912;SDS011;6524;51.368;11.984;2022-09-02T07:35:17;5.07;;;3.70;;
12912;SDS011;6524;51.368;11.984;2022-09-02T07:40:17;3.40;;;3.03;;
12912;SDS011;6524;51.368;11.984;2022-09-02T07:45:18;5.05;;;3.03;;
12912;SDS011;6524;51.368;11.984;2022-09-02T07:50:18;3.88;;;2.80;;
12912;SDS011;6524;51.368;11.984;2022-09-02T07:55:19;4.65;;;2.40;;
12912;SDS011;6524;51.368;11.984;2022-09-02T08:00:20;3.30;;;2.40;;
12912;SDS011;6524;51.368;11.984;2022-09-02T08:05:22;3.08;;;2.78;;
12912;SDS011;6524;51.368;11.984;2022-09-02T08:10:22;3.88;;;2.40;;
12912;SDS011;6524;51.368;11.984;2022-09-02T08:15:26;2.67;;;2.30;;
12912;SDS011;6524;51.368;11.984;2022-09-02T08:20:29;4.60;;;2.38;;
12912;SDS011;6524;51.368;11.984;2022-09-02T08:25:29;2.70;;;2.22;;
12912;SDS011;6524;51.368;11.984;2022-09-02T08:30:30;4.20;;;2.10;;
12912;SDS011;6524;51.368;11.984;2022-09-02T08:35:31;3.47;;;2.28;;
12912;SDS011;6524;51.368;11.984;2022-09-02T08:40:34;4.35;;;2.80;;
12912;SDS011;6524;51.368;11.984;2022-09-02T08:45:37;2.55;;;1.85;;
12912;SDS011;6524;51.368;11.984;2022-09-02T08:50:39;2.70;;;1.77;;
12912;SDS011;6524;51.368;11.984;2022-09-02T08:55:50;2.47;;;1.67;;
12912;SDS011;6524;51.368;11.984;2022-09-02T09:01:01;3.00;;;1.80;;
12912;SDS011;6524;51.368;11.984;2022-09-02T09:11:30;2.45;;;1.77;;
12912;SDS011;6524;51.368;11.984;2022-09-02T09:22:05;2.55;;;1.70;;
12912;SDS011;6524;51.368;11.984;2022-09-02T09:27:08;3.13;;;1.70;;
12912;SDS011;6524;51.368;11.984;2022-09-02T09:37:30;1.60;;;1.50;;
12912;SDS011;6524;51.368;11.984;2022-09-02T09:42:33;2.03;;;1.50;;
12912;SDS011;6524;51.368;11.984;2022-09-02T09:47:36;1.73;;;1.60;;
12912;SDS011;6524;51.368;11.984;2022-09-02T09:52:36;1.58;;;1.48;;
12912;SDS011;6524;51.368;11.984;2022-09-02T09:57:37;1.50;;;1.40;;
12912;SDS011;6524;51.368;11.984;2022-09-02T10:02:50;2.25;;;1.45;;
12912;SDS011;6524;51.368;11.984;2022-09-02T10:07:54;1.50;;;1.40;;
12912;SDS011;6524;51.368;11.984;2022-09-02T10:13:15;1.85;;;1.35;;
12912;SDS011;6524;51.368;11.984;2022-09-02T10:18:56;1.40;;;1.30;;
12912;SDS011;6524;51.368;11.984;2022-09-02T10:24:28;2.63;;;1.60;;
12912;SDS011;6524;51.368;11.984;2022-09-02T10:29:38;2.92;;;1.50;;
12912;SDS011;6524;51.368;11.984;2022-09-02T10:40:21;2.85;;;1.40;;
12912;SDS011;6524;51.368;11.984;2022-09-02T10:45:36;1.80;;;1.60;;
12912;SDS011;6524;51.368;11.984;2022-09-02T11:00:57;2.05;;;1.50;;
12912;SDS011;6524;51.368;11.984;2022-09-02T11:06:07;2.10;;;1.40;;
12912;SDS011;6524;51.368;11.984;2022-09-02T11:11:26;1.42;;;1.27;;
12912;SDS011;6524;51.368;11.984;2022-09-02T11:27:16;1.95;;;1.50;;
12912;SDS011;6524;51.368;11.984;2022-09-02T11:32:38;1.85;;;1.52;;
12912;SDS011;6524;51.368;11.984;2022-09-02T11:37:48;4.13;;;2.00;;
12912;SDS011;6524;51.368;11.984;2022-09-02T11:48:07;1.77;;;1.40;;
12912;SDS011;6524;51.368;11.984;2022-09-02T11:58:37;1.60;;;1.50;;
12912;SDS011;6524;51.368;11.984;2022-09-02T12:03:40;3.15;;;1.50;;
12912;SDS011;6524;51.368;11.984;2022-09-02T12:13:47;1.88;;;1.40;;
12912;SDS011;6524;51.368;11.984;2022-09-02T13:27:32;1.20;;;1.10;;
12912;SDS011;6524;51.368;11.984;2022-09-02T13:32:45;1.25;;;1.15;;
12912;SDS011;6524;51.368;11.984;2022-09-02T13:37:56;1.55;;;1.33;;
12912;SDS011;6524;51.368;11.984;2022-09-02T13:43:00;1.58;;;1.20;;
12912;SDS011;6524;51.368;11.984;2022-09-02T13:48:24;1.73;;;1.30;;
12912;SDS011;6524;51.368;11.984;2022-09-02T13:53:34;1.50;;;1.40;;
12912;SDS011;6524;51.368;11.984;2022-09-02T13:58:39;2.17;;;1.30;;
12912;SDS011;6524;51.368;11.984;2022-09-02T14:03:44;2.20;;;1.50;;
12912;SDS011;6524;51.368;11.984;2022-09-02T14:08:48;1.63;;;1.35;;
12912;SDS011;6524;51.368;11.984;2022-09-02T14:13:51;1.30;;;1.20;;
12912;SDS011;6524;51.368;11.984;2022-09-02T14:19:05;1.48;;;1.30;;
12912;SDS011;6524;51.368;11.984;2022-09-02T14:24:19;2.45;;;1.80;;
12912;SDS011;6524;51.368;11.984;2022-09-02T14:29:22;1.50;;;1.40;;
12912;SDS011;6524;51.368;11.984;2022-09-02T14:34:30;1.42;;;1.33;;
12912;SDS011;6524;51.368;11.984;2022-09-02T14:39:35;1.20;;;1.10;;
12912;SDS011;6524;51.368;11.984;2022-09-02T14:44:51;2.65;;;1.30;;
12912;SDS011;6524;51.368;11.984;2022-09-02T14:49:51;2.67;;;1.60;;
12912;SDS011;6524;51.368;11.984;2022-09-02T14:54:55;2.58;;;1.27;;
12912;SDS011;6524;51.368;11.984;2022-09-02T14:59:57;3.08;;;1.35;;
12912;SDS011;6524;51.368;11.984;2022-09-02T15:05:00;2.95;;;1.20;;
12912;SDS011;6524;51.368;11.984;2022-09-02T15:10:04;1.70;;;1.30;;
12912;SDS011;6524;51.368;11.984;2022-09-02T15:15:07;3.30;;;1.50;;
12912;SDS011;6524;51.368;11.984;2022-09-02T15:20:07;2.28;;;1.30;;
12912;SDS011;6524;51.368;11.984;2022-09-02T15:25:09;1.80;;;1.30;;
12912;SDS011;6524;51.368;11.984;2022-09-02T15:30:09;2.08;;;1.30;;
12912;SDS011;6524;51.368;11.984;2022-09-02T15:35:10;1.50;;;1.40;;
12912;SDS011;6524;51.368;11.984;2022-09-02T15:40:10;1.80;;;1.60;;
12912;SDS011;6524;51.368;11.984;2022-09-02T15:45:11;1.67;;;1.25;;
12912;SDS011;6524;51.368;11.984;2022-09-02T15:50:11;1.95;;;1.50;;
12912;SDS011;6524;51.368;11.984;2022-09-02T15:55:11;1.75;;;1.30;;
12912;SDS011;6524;51.368;11.984;2022-09-02T16:00:12;2.38;;;1.50;;
12912;SDS011;6524;51.368;11.984;2022-09-02T16:05:12;1.67;;;1.40;;
12912;SDS011;6524;51.368;11.984;2022-09-02T16:10:13;2.33;;;1.45;;
12912;SDS011;6524;51.368;11.984;2022-09-02T16:15:14;1.70;;;1.40;;
12912;SDS011;6524;51.368;11.984;2022-09-02T16:20:14;1.60;;;1.38;;
12912;SDS011;6524;51.368;11.984;2022-09-02T16:25:15;2.00;;;1.77;;
12912;SDS011;6524;51.368;11.984;2022-09-02T16:30:15;2.50;;;1.50;;
12912;SDS011;6524;51.368;11.984;2022-09-02T16:35:16;1.80;;;1.40;;
12912;SDS011;6524;51.368;11.984;2022-09-02T16:40:16;1.60;;;1.50;;
12912;SDS011;6524;51.368;11.984;2022-09-02T16:45:21;2.50;;;1.70;;
12912;SDS011;6524;51.368;11.984;2022-09-02T16:50:21;2.80;;;1.63;;
12912;SDS011;6524;51.368;11.984;2022-09-02T16:55:22;1.60;;;1.50;;
12912;SDS011;6524;51.368;11.984;2022-09-02T17:00:26;2.00;;;1.65;;
12912;SDS011;6524;51.368;11.984;2022-09-02T17:05:26;1.95;;;1.52;;
12912;SDS011;6524;51.368;11.984;2022-09-02T17:10:30;1.50;;;1.40;;
12912;SDS011;6524;51.368;11.984;2022-09-02T17:15:33;2.95;;;2.65;;
12912;SDS011;6524;51.368;11.984;2022-09-02T17:20:33;3.33;;;1.55;;
12912;SDS011;6524;51.368;11.984;2022-09-02T17:25:34;2.47;;;1.40;;
12912;SDS011;6524;51.368;11.984;2022-09-02T17:30:34;1.60;;;1.50;;
12912;SDS011;6524;51.368;11.984;2022-09-02T17:35:34;1.67;;;1.50;;
12912;SDS011;6524;51.368;11.984;2022-09-02T17:40:35;2.00;;;1.90;;
12912;SDS011;6524;51.368;11.984;2022-09-02T17:46:02;2.60;;;1.70;;
12912;SDS011;6524;51.368;11.984;2022-09-02T17:51:06;2.28;;;1.70;;
12912;SDS011;6524;51.368;11.984;2022-09-02T18:01:51;3.85;;;2.83;;
12912;SDS011;6524;51.368;11.984;2022-09-02T18:06:53;2.75;;;2.50;;
12912;SDS011;6524;51.368;11.984;2022-09-02T18:12:03;1.80;;;1.70;;
12912;SDS011;6524;51.368;11.984;2022-09-02T18:28:18;2.42;;;1.98;;
12912;SDS011;6524;51.368;11.984;2022-09-02T18:44:17;2.78;;;1.90;;
12912;SDS011;6524;51.368;11.984;2022-09-02T18:49:27;4.03;;;2.30;;
12912;SDS011;6524;51.368;11.984;2022-09-02T18:54:45;2.90;;;2.60;;
12912;SDS011;6524;51.368;11.984;2022-09-02T19:00:05;3.50;;;2.00;;
12912;SDS011;6524;51.368;11.984;2022-09-02T19:05:14;2.67;;;2.00;;
12912;SDS011;6524;51.368;11.984;2022-09-02T19:10:17;3.00;;;2.03;;
12912;SDS011;6524;51.368;11.984;2022-09-02T19:15:18;2.65;;;1.95;;
12912;SDS011;6524;51.368;11.984;2022-09-02T19:20:19;3.47;;;1.83;;
12912;SDS011;6524;51.368;11.984;2022-09-02T19:25:22;3.13;;;2.10;;
12912;SDS011;6524;51.368;11.984;2022-09-02T19:30:25;2.35;;;2.00;;
12912;SDS011;6524;51.368;11.984;2022-09-02T19:35:26;3.20;;;2.15;;
12912;SDS011;6524;51.368;11.984;2022-09-02T19:40:31;3.33;;;2.10;;
12912;SDS011;6524;51.368;11.984;2022-09-02T19:45:33;3.88;;;2.95;;
12912;SDS011;6524;51.368;11.984;2022-09-02T19:50:39;3.15;;;2.10;;
12912;SDS011;6524;51.368;11.984;2022-09-02T19:55:44;3.50;;;2.00;;
12912;SDS011;6524;51.368;11.984;2022-09-02T20:00:45;2.63;;;2.20;;
12912;SDS011;6524;51.368;11.984;2022-09-02T20:05:49;4.03;;;2.20;;
12912;SDS011;6524;51.368;11.984;2022-09-02T20:10:56;2.40;;;2.20;;
12912;SDS011;6524;51.368;11.984;2022-09-02T20:15:59;2.65;;;2.42;;
12912;SDS011;6524;51.368;11.984;2022-09-02T20:21:00;3.92;;;2.83;;
12912;SDS011;6524;51.368;11.984;2022-09-02T20:36:41;2.45;;;1.90;;
12912;SDS011;6524;51.368;11.984;2022-09-02T21:08:54;2.67;;;1.83;;
12912;SDS011;6524;51.368;11.984;2022-09-02T21:14:04;2.08;;;1.85;;
12912;SDS011;6524;51.368;11.984;2022-09-02T21:19:30;2.53;;;1.90;;
12912;SDS011;6524;51.368;11.984;2022-09-02T21:24:39;2.55;;;2.20;;
12912;SDS011;6524;51.368;11.984;2022-09-02T21:29:52;5.22;;;2.00;;
12912;SDS011;6524;51.368;11.984;2022-09-02T21:35:07;3.00;;;1.80;;
12912;SDS011;6524;51.368;11.984;2022-09-02T21:40:11;2.65;;;2.10;;
12912;SDS011;6524;51.368;11.984;2022-09-02T21:50:27;2.30;;;1.75;;
12912;SDS011;6524;51.368;11.984;2022-09-02T21:55:51;2.35;;;1.85;;
12912;SDS011;6524;51.368;11.984;2022-09-02T22:01:03;2.55;;;2.00;;
12912;SDS011;6524;51.368;11.984;2022-09-02T22:11:32;3.72;;;2.28;;
12912;SDS011;6524;51.368;11.984;2022-09-02T22:16:38;4.75;;;2.13;;
12912;SDS011;6524;51.368;11.984;2022-09-02T22:22:16;2.65;;;2.10;;
12912;SDS011;6524;51.368;11.984;2022-09-02T22:27:24;2.70;;;2.03;;
12912;SDS011;6524;51.368;11.984;2022-09-02T22:32:49;2.97;;;1.85;;
12912;SDS011;6524;51.368;11.984;2022-09-02T22:37:58;2.00;;;1.80;;
12912;SDS011;6524;51.368;11.984;2022-09-02T22:43:10;2.33;;;1.80;;
12912;SDS011;6524;51.368;11.984;2022-09-02T22:53:40;2.55;;;1.92;;
12912;SDS011;6524;51.368;11.984;2022-09-02T23:09:12;3.42;;;1.90;;
12912;SDS011;6524;51.368;11.984;2022-09-02T23:14:23;3.92;;;2.10;;
12912;SDS011;6524;51.368;11.984;2022-09-02T23:19:43;3.67;;;2.10;;
12912;SDS011;6524;51.368;11.984;2022-09-02T23:30:20;2.80;;;2.10;;
12912;SDS011;6524;51.368;11.984;2022-09-02T23:35:22;2.80;;;1.73;;
12912;SDS011;6524;51.368;11.984;2022-09-02T23:45:53;2.25;;;1.90;;
